Terminal Aerodrome Forecast
Issued by NWS Northern Indiana

Home | Current Version | Previous Version | Graphics & Text | Print | Product List | Glossary On
Versions: 1 2 3 4 5 6 7 8 9 10 11 12 13 14 15 16
000
FTUS43 KIWX 101739
TAFFWA
TAF
KFWA 101739Z 1018/1118 23016G22KT P6SM BKN040 OVC100
     FM102200 26008KT P6SM BKN020
     FM111000 20004KT P6SM SCT020 BKN100
     FM111500 20010KT P6SM OVC040=

USA.gov is the U.S. government's official web portal to all federal, state and local government web resources and services.